Time;durP1;ratioP1;P1;durP2;ratioP2;P2;SDS_P1;SDS_P2;PMS_P1;PMS_P2;Temp;Humidity;BMP_temperature;BMP_pressure;BME280_temperature;BME280_humidity;BME280_pressure;Samples;Min_cycle;Max_cycle;Signal;HPM_P1;HPM_P2
2021/01/24 00:01:20;;;;;;;31.42;23.73;;;230.70;2099.20;;;;;;4898082;29;20117;-78
2021/01/24 00:03:46;;;;;;;33.72;22.10;;;230.70;2124.80;;;;;;4898869;29;20117;-79
2021/01/24 00:06:12;;;;;;;29.60;22.77;;;230.60;2124.80;;;;;;4892391;29;20064;-77
2021/01/24 00:08:38;;;;;;;33.55;22.13;;;230.50;2124.80;;;;;;4898737;29;20112;-77
2021/01/24 00:11:05;;;;;;;25.80;20.65;;;230.50;2124.80;;;;;;4888178;29;20045;-77
2021/01/24 00:13:30;;;;;;;31.92;22.52;;;230.40;2150.40;;;;;;4885153;29;20168;-77
2021/01/24 00:15:56;;;;;;;32.78;20.58;;;230.40;2150.40;;;;;;4884109;29;20025;-77
2021/01/24 00:18:22;;;;;;;27.80;20.92;;;230.40;2150.40;;;;;;4900261;29;20035;-79
2021/01/24 00:20:47;;;;;;;28.98;21.88;;;205.70;2150.40;;;;;;4898011;29;20508;-79
2021/01/24 00:23:13;;;;;;;32.33;23.88;;;205.70;2150.40;;;;;;4885845;29;20025;-78
2021/01/24 00:25:39;;;;;;;32.65;24.50;;;205.70;2150.40;;;;;;4881420;29;20057;-78
2021/01/24 00:28:04;;;;;;;27.08;20.98;;;205.60;2150.40;;;;;;4880576;29;20032;-79
2021/01/24 00:30:30;;;;;;;28.60;20.58;;;205.60;2150.40;;;;;;4881553;29;20120;-79
2021/01/24 00:32:57;;;;;;;26.05;20.55;;;205.60;2150.40;;;;;;4881964;29;20057;-78
2021/01/24 00:35:22;;;;;;;28.30;21.35;;;205.60;2150.40;;;;;;4881435;29;20029;-78
2021/01/24 00:37:48;;;;;;;24.13;20.00;;;205.60;2150.40;;;;;;4898375;29;20059;-78
2021/01/24 00:40:14;;;;;;;28.88;20.92;;;205.60;2150.40;;;;;;4899335;29;20032;-78
2021/01/24 00:42:39;;;;;;;26.52;19.33;;;205.60;2150.40;;;;;;4896696;29;20041;-79
2021/01/24 00:45:09;;;;;;;28.35;19.98;;;205.60;2124.80;;;;;;4880217;29;20441;-79
2021/01/24 00:47:35;;;;;;;24.67;19.58;;;205.50;2150.40;;;;;;4880224;29;20136;-78
2021/01/24 00:50:04;;;;;;;26.10;18.25;;;205.50;2150.40;;;;;;4881491;29;20564;-78
2021/01/24 00:52:30;;;;;;;25.50;18.70;;;205.50;2150.40;;;;;;4881809;29;20028;-77
2021/01/24 00:54:56;;;;;;;26.38;19.65;;;205.50;2124.80;;;;;;4881349;29;20037;-77
2021/01/24 00:57:21;;;;;;;26.80;19.60;;;205.40;2150.40;;;;;;4880073;29;20029;-77
2021/01/24 00:59:47;;;;;;;25.08;18.98;;;205.40;2150.40;;;;;;4881257;29;20519;-77
2021/01/24 01:02:13;;;;;;;28.77;19.25;;;205.40;2150.40;;;;;;4878408;29;20469;-78
2021/01/24 01:04:39;;;;;;;27.48;20.23;;;205.40;2150.40;;;;;;4878105;29;20048;-78
2021/01/24 01:07:04;;;;;;;25.20;19.27;;;205.40;2150.40;;;;;;4878545;29;20040;-78
2021/01/24 01:09:30;;;;;;;29.85;23.20;;;205.40;2150.40;;;;;;4877565;29;20401;-78
2021/01/24 01:11:56;;;;;;;28.27;22.60;;;205.30;2150.40;;;;;;4877418;29;20044;-79
2021/01/24 01:14:22;;;;;;;29.40;21.50;;;205.20;2176.00;;;;;;4894469;29;20025;-78
2021/01/24 01:16:47;;;;;;;30.35;21.48;;;205.20;2176.00;;;;;;4897966;29;20500;-78
2021/01/24 01:19:13;;;;;;;30.48;21.38;;;205.10;2176.00;;;;;;4896231;29;20036;-77
2021/01/24 01:21:39;;;;;;;32.35;22.33;;;205.10;2176.00;;;;;;4897959;29;20035;-78
2021/01/24 01:24:05;;;;;;;28.25;21.25;;;205.10;2176.00;;;;;;4896083;29;20115;-77
2021/01/24 01:26:31;;;;;;;25.38;18.15;;;205.00;2176.00;;;;;;4897755;29;20029;-78
2021/01/24 01:28:57;;;;;;;22.80;15.98;;;205.00;2150.40;;;;;;4896154;29;20370;-78
2021/01/24 01:31:23;;;;;;;19.45;15.23;;;204.90;2150.40;;;;;;4896506;29;20036;-78
2021/01/24 01:33:48;;;;;;;20.30;15.02;;;204.90;2150.40;;;;;;4896254;29;20115;-77
2021/01/24 01:36:14;;;;;;;24.33;13.70;;;204.90;2150.40;;;;;;4897931;29;20362;-77
2021/01/24 01:38:40;;;;;;;19.13;13.80;;;204.90;2124.80;;;;;;4896166;29;20029;-77
2021/01/24 01:41:06;;;;;;;20.00;13.80;;;204.90;2150.40;;;;;;4897552;29;20477;-77
2021/01/24 01:43:33;;;;;;;16.80;11.93;;;204.90;2124.80;;;;;;4897826;29;20032;-77
2021/01/24 01:45:59;;;;;;;16.63;11.77;;;204.90;2124.80;;;;;;4897558;29;20044;-77
2021/01/24 01:48:24;;;;;;;13.82;10.52;;;204.90;2124.80;;;;;;4896697;29;20029;-78
2021/01/24 01:50:50;;;;;;;17.52;12.70;;;204.90;2099.20;;;;;;4897546;29;20112;-77
2021/01/24 01:53:16;;;;;;;16.33;12.88;;;204.80;2124.80;;;;;;4897760;29;20021;-77
2021/01/24 01:55:42;;;;;;;12.80;10.43;;;204.80;2124.80;;;;;;4897739;29;20472;-77
2021/01/24 01:58:08;;;;;;;14.38;9.38;;;204.80;2099.20;;;;;;4896534;29;20052;-77
2021/01/24 02:00:34;;;;;;;11.45;8.73;;;204.80;2099.20;;;;;;4896366;29;20092;-77
2021/01/24 02:03:32;;;;;;;11.15;7.72;;;204.80;2099.20;;;;;;4896514;29;20063;-77
2021/01/24 02:06:27;;;;;;;11.40;8.25;;;204.80;2099.20;;;;;;4823542;29;20410;-78
2021/01/24 02:09:36;;;;;;;11.68;7.78;;;204.80;2099.20;;;;;;4825151;29;20812;-77
2021/01/24 02:12:27;;;;;;;11.00;6.85;;;204.90;2073.60;;;;;;4825272;29;20047;-78
2021/01/24 02:15:14;;;;;;;11.20;7.68;;;204.90;2073.60;;;;;;4825087;29;20042;-78
2021/01/24 02:17:45;;;;;;;11.65;7.45;;;204.90;2073.60;;;;;;4825314;29;20073;-78
2021/01/24 02:20:18;;;;;;;13.73;7.47;;;204.90;2073.60;;;;;;4825406;29;20038;-78
2021/01/24 02:22:47;;;;;;;11.45;7.40;;;204.90;2073.60;;;;;;4825137;29;20038;-78
2021/01/24 02:25:40;;;;;;;13.88;7.75;;;204.90;2073.60;;;;;;4824688;29;20074;-77
2021/01/24 02:28:39;;;;;;;9.77;6.68;;;205.00;2073.60;;;;;;4810045;29;20045;-77
2021/01/24 02:31:05;;;;;;;9.35;6.97;;;205.00;2073.60;;;;;;4809625;29;20089;-77
2021/01/24 02:33:32;;;;;;;8.38;6.15;;;205.00;2048.00;;;;;;4824777;29;20454;-77
2021/01/24 02:36:00;;;;;;;11.07;6.47;;;205.00;2048.00;;;;;;4825147;29;20034;-77
2021/01/24 02:38:27;;;;;;;9.70;6.90;;;204.90;2073.60;;;;;;4808311;29;20042;-77
2021/01/24 02:40:53;;;;;;;9.80;6.60;;;204.90;2073.60;;;;;;4809902;29;20042;-77
2021/01/24 02:43:20;;;;;;;9.45;7.03;;;205.00;2073.60;;;;;;4874068;29;20037;-77
2021/01/24 02:45:49;;;;;;;10.75;6.20;;;204.90;2048.00;;;;;;4900847;29;20065;-77
2021/01/24 02:48:17;;;;;;;10.10;6.82;;;204.90;2073.60;;;;;;4901204;29;20024;-77
2021/01/24 02:50:45;;;;;;;9.38;5.90;;;204.90;2073.60;;;;;;4898569;29;20044;-77
2021/01/24 02:53:11;;;;;;;10.35;6.75;;;204.80;2073.60;;;;;;4899687;29;20028;-77
2021/01/24 02:55:37;;;;;;;9.27;5.80;;;180.10;2073.60;;;;;;4899394;29;20413;-76
2021/01/24 02:58:03;;;;;;;9.98;6.13;;;180.10;2073.60;;;;;;4901180;29;20029;-77
2021/01/24 03:00:30;;;;;;;9.68;5.75;;;180.10;2073.60;;;;;;4896162;29;20052;-76
2021/01/24 03:02:56;;;;;;;9.80;6.40;;;180.10;2073.60;;;;;;4900596;29;20035;-76
2021/01/24 03:05:23;;;;;;;12.43;6.47;;;180.10;2073.60;;;;;;4900417;29;20040;-76
2021/01/24 03:07:49;;;;;;;7.55;5.15;;;180.10;2073.60;;;;;;4900242;29;20549;-77
2021/01/24 03:10:16;;;;;;;7.60;4.93;;;204.80;2048.00;;;;;;4900723;29;20040;-76
2021/01/24 03:13:08;;;;;;;6.78;4.50;;;204.80;2048.00;;;;;;4899364;29;20084;-77
2021/01/24 03:15:35;;;;;;;8.90;4.55;;;204.80;2022.40;;;;;;4900833;29;20048;-76
2021/01/24 03:18:03;;;;;;;8.55;5.38;;;204.90;1996.80;;;;;;4897786;29;20167;-76
2021/01/24 03:20:33;;;;;;;6.63;4.22;;;205.00;1996.80;;;;;;4900375;29;20036;-76
2021/01/24 03:23:02;;;;;;;8.18;4.53;;;205.00;1996.80;;;;;;4900631;29;20029;-76
2021/01/24 03:25:28;;;;;;;8.25;4.55;;;205.10;1996.80;;;;;;4899161;29;20035;-76
2021/01/24 03:27:54;;;;;;;9.45;5.25;;;205.10;1971.20;;;;;;4899238;29;20075;-76
2021/01/24 03:30:21;;;;;;;6.60;4.53;;;205.20;1971.20;;;;;;4881606;29;20032;-76
2021/01/24 03:32:46;;;;;;;8.13;5.05;;;205.20;1971.20;;;;;;4882100;29;20025;-76
2021/01/24 03:35:15;;;;;;;9.48;5.57;;;205.20;1971.20;;;;;;4881573;29;20017;-76
2021/01/24 03:37:41;;;;;;;8.32;5.05;;;205.20;1971.20;;;;;;4879494;29;20124;-77
2021/01/24 03:40:07;;;;;;;9.05;4.97;;;205.30;1971.20;;;;;;4881878;29;20133;-77
2021/01/24 03:42:33;;;;;;;10.25;5.45;;;205.30;1971.20;;;;;;4881291;29;20497;-77
2021/01/24 03:44:58;;;;;;;8.25;4.93;;;205.30;1945.60;;;;;;4881886;29;20064;-77
2021/01/24 03:47:24;;;;;;;9.70;5.45;;;205.30;1945.60;;;;;;4881894;29;20460;-77
2021/01/24 03:49:49;;;;;;;5.88;4.05;;;205.30;1945.60;;;;;;4880168;29;20167;-77
2021/01/24 03:52:15;;;;;;;9.13;5.07;;;205.20;1945.60;;;;;;4879761;29;20025;-76
2021/01/24 03:54:41;;;;;;;7.30;4.43;;;205.30;1945.60;;;;;;4881275;29;20025;-76
2021/01/24 03:57:07;;;;;;;7.40;4.68;;;205.20;1945.60;;;;;;4880784;29;20077;-76
2021/01/24 03:59:32;;;;;;;11.73;5.40;;;205.20;1971.20;;;;;;4881074;29;20044;-76
2021/01/24 04:01:58;;;;;;;7.72;4.75;;;205.10;1971.20;;;;;;4880659;29;20025;-76
2021/01/24 04:04:24;;;;;;;9.48;5.05;;;205.10;1971.20;;;;;;4881071;29;20060;-77
2021/01/24 04:06:49;;;;;;;7.65;4.57;;;205.00;1971.20;;;;;;4881693;29;20029;-77
2021/01/24 04:09:15;;;;;;;11.75;4.82;;;205.00;1971.20;;;;;;4881313;29;20042;-75
2021/01/24 04:11:40;;;;;;;7.90;4.35;;;204.90;1971.20;;;;;;4879492;29;20044;-76
2021/01/24 04:14:06;;;;;;;10.00;4.00;;;204.90;1971.20;;;;;;4879380;29;20061;-76
2021/01/24 04:16:32;;;;;;;6.55;3.78;;;204.90;1971.20;;;;;;4880523;29;20036;-75
2021/01/24 04:18:57;;;;;;;6.78;4.05;;;204.90;1971.20;;;;;;4880310;29;20021;-75
2021/01/24 04:21:23;;;;;;;5.72;3.60;;;204.90;1971.20;;;;;;4880714;29;20037;-75
2021/01/24 04:23:49;;;;;;;8.35;4.82;;;204.90;1945.60;;;;;;4880486;29;20057;-76
2021/01/24 04:26:14;;;;;;;7.05;4.03;;;204.90;1945.60;;;;;;4881702;29;20504;-77
2021/01/24 04:28:40;;;;;;;10.90;4.38;;;204.90;1945.60;;;;;;4880314;29;20104;-77
2021/01/24 04:31:06;;;;;;;6.15;3.83;;;204.90;1945.60;;;;;;4881464;29;20025;-76
2021/01/24 04:33:32;;;;;;;7.38;4.15;;;204.90;1945.60;;;;;;4880057;29;20092;-76
2021/01/24 04:35:58;;;;;;;8.60;5.18;;;204.90;1971.20;;;;;;4880449;29;20481;-76
2021/01/24 04:38:23;;;;;;;6.00;4.25;;;204.90;1945.60;;;;;;4880348;29;20025;-76
2021/01/24 04:40:49;;;;;;;10.38;4.55;;;204.90;1945.60;;;;;;4878871;29;20049;-76
2021/01/24 04:43:15;;;;;;;7.82;4.70;;;204.90;1971.20;;;;;;4882295;29;20031;-76
2021/01/24 04:45:41;;;;;;;8.25;4.82;;;204.80;1971.20;;;;;;4881377;29;20111;-76
2021/01/24 04:48:09;;;;;;;10.32;4.75;;;204.80;1971.20;;;;;;4881893;29;20025;-76
2021/01/24 04:50:37;;;;;;;7.38;4.63;;;204.80;1945.60;;;;;;4881132;29;20036;-76
2021/01/24 04:53:03;;;;;;;6.22;4.10;;;204.80;1971.20;;;;;;4879903;29;20037;-77
2021/01/24 04:55:30;;;;;;;8.73;5.40;;;180.10;1971.20;;;;;;4880987;29;20037;-76
2021/01/24 04:57:57;;;;;;;9.13;6.30;;;180.10;1971.20;;;;;;4882316;29;20124;-77
2021/01/24 05:00:24;;;;;;;12.32;7.43;;;180.00;1971.20;;;;;;4882274;29;20025;-77
2021/01/24 05:02:50;;;;;;;8.55;6.30;;;180.00;1971.20;;;;;;4882400;29;20040;-77
2021/01/24 05:05:16;;;;;;;10.75;5.45;;;179.90;1996.80;;;;;;4881598;29;20036;-76
2021/01/24 05:07:58;;;;;;;7.82;4.97;;;179.80;1996.80;;;;;;4880312;29;20036;-76
2021/01/24 05:10:30;;;;;;;7.85;5.20;;;179.70;2022.40;;;;;;4877855;29;20041;-77
2021/01/24 05:13:00;;;;;;;9.63;5.57;;;179.60;2022.40;;;;;;4878700;29;20053;-78
2021/01/24 05:15:27;;;;;;;7.57;4.90;;;179.50;2048.00;;;;;;4877315;29;20053;-77
2021/01/24 05:17:54;;;;;;;6.40;4.28;;;179.40;2048.00;;;;;;4879068;29;20017;-77
2021/01/24 05:20:31;;;;;;;8.07;4.90;;;179.40;2048.00;;;;;;4878970;29;20044;-78
2021/01/24 05:22:59;;;;;;;7.40;4.68;;;179.50;2048.00;;;;;;4879095;29;20493;-77
2021/01/24 05:25:30;;;;;;;7.40;4.65;;;179.50;2022.40;;;;;;4877360;29;20064;-76
2021/01/24 05:27:56;;;;;;;8.90;5.70;;;179.50;2048.00;;;;;;4878585;29;20086;-76
2021/01/24 05:30:32;;;;;;;8.27;5.13;;;179.50;2048.00;;;;;;4878967;29;20460;-78
2021/01/24 05:33:00;;;;;;;9.57;5.53;;;179.60;2022.40;;;;;;4878540;29;20033;-77
2021/01/24 05:35:27;;;;;;;11.68;7.25;;;179.60;2022.40;;;;;;4877710;29;20084;-77
2021/01/24 05:37:53;;;;;;;13.40;6.72;;;179.60;2022.40;;;;;;4878556;29;20032;-76
2021/01/24 05:40:19;;;;;;;11.75;6.15;;;179.70;2022.40;;;;;;4878540;29;20045;-76
2021/01/24 05:42:46;;;;;;;10.35;6.25;;;179.70;2022.40;;;;;;4878403;29;20029;-77
2021/01/24 05:45:18;;;;;;;11.43;5.70;;;179.80;2022.40;;;;;;4877131;29;20044;-77
2021/01/24 05:47:45;;;;;;;8.93;4.88;;;179.80;1996.80;;;;;;4877315;29;20033;-78
2021/01/24 05:50:12;;;;;;;9.77;5.63;;;179.90;1996.80;;;;;;4877076;29;20044;-78
2021/01/24 05:52:39;;;;;;;7.13;5.15;;;179.90;1996.80;;;;;;4877443;29;20052;-77
2021/01/24 05:55:07;;;;;;;10.02;6.25;;;179.90;1996.80;;;;;;4877192;29;20036;-77
2021/01/24 05:57:36;;;;;;;8.40;4.63;;;179.90;2022.40;;;;;;4878872;29;20492;-77
2021/01/24 06:00:05;;;;;;;8.10;4.78;;;179.90;1996.80;;;;;;4876849;29;20051;-76
2021/01/24 06:02:31;;;;;;;6.95;4.68;;;179.90;1996.80;;;;;;4878184;29;20433;-76
2021/01/24 06:04:57;;;;;;;8.82;5.78;;;179.90;1996.80;;;;;;4877444;29;20041;-76
2021/01/24 06:07:23;;;;;;;10.75;6.95;;;179.90;1996.80;;;;;;4876622;29;20029;-76
2021/01/24 06:09:49;;;;;;;11.45;6.82;;;179.90;1996.80;;;;;;4877986;29;20445;-76
2021/01/24 06:12:16;;;;;;;9.70;6.22;;;179.90;1996.80;;;;;;4876804;29;20047;-77
2021/01/24 06:14:49;;;;;;;7.32;5.43;;;179.90;1996.80;;;;;;4878203;29;20382;-77
2021/01/24 06:17:28;;;;;;;9.98;5.32;;;179.90;1996.80;;;;;;4876441;29;20026;-77
2021/01/24 06:19:57;;;;;;;8.13;5.50;;;179.70;1996.80;;;;;;4877038;29;20037;-77
2021/01/24 06:22:26;;;;;;;9.27;5.03;;;179.80;2022.40;;;;;;4878725;29;20029;-77
2021/01/24 06:24:56;;;;;;;11.85;7.57;;;179.90;2022.40;;;;;;4878312;29;20036;-77
2021/01/24 06:27:25;;;;;;;12.02;8.07;;;179.90;1996.80;;;;;;4878829;29;20025;-77
2021/01/24 06:29:54;;;;;;;22.27;12.80;;;179.80;2022.40;;;;;;4878284;29;20032;-77
2021/01/24 06:32:28;;;;;;;26.83;15.30;;;179.80;2022.40;;;;;;4877348;29;20029;-77
2021/01/24 06:34:55;;;;;;;52.38;27.95;;;179.90;1996.80;;;;;;4878470;29;20029;-77
2021/01/24 06:37:25;;;;;;;25.05;17.00;;;180.00;1996.80;;;;;;4878161;29;20732;-77
2021/01/24 06:39:52;;;;;;;19.17;13.25;;;180.00;1996.80;;;;;;4878544;29;20033;-77
2021/01/24 06:42:36;;;;;;;20.20;13.25;;;180.00;1996.80;;;;;;4878296;29;20477;-77
2021/01/24 06:45:05;;;;;;;25.98;14.05;;;180.10;1996.80;;;;;;4878581;29;20852;-76
2021/01/24 06:47:41;;;;;;;30.10;17.13;;;180.00;1996.80;;;;;;4876371;29;20483;-77
2021/01/24 06:50:34;;;;;;;21.00;12.68;;;180.00;1996.80;;;;;;4889127;29;20041;-77
2021/01/24 06:53:04;;;;;;;12.73;7.38;;;179.90;1996.80;;;;;;4898744;29;20028;-77
2021/01/24 06:55:29;;;;;;;13.15;8.57;;;179.90;1996.80;;;;;;4898732;29;20047;-78
2021/01/24 06:57:55;;;;;;;12.35;7.55;;;179.90;1996.80;;;;;;4898955;29;20028;-78
2021/01/24 07:00:22;;;;;;;19.33;10.85;;;179.90;1996.80;;;;;;4899247;29;20060;-78
2021/01/24 07:14:38;;;;;;;20.85;13.82;;;179.90;2022.40;;;;;;4897759;29;20457;-76
2021/01/24 07:22:13;;;;;;;15.18;9.65;;;204.80;1971.20;;;;;;4881178;29;20040;-77
2021/01/24 07:36:07;;;;;;;11.18;7.78;;;205.50;1894.40;;;;;;4845050;29;20900;-78
2021/01/24 07:38:33;;;;;;;13.40;9.32;;;205.60;1868.80;;;;;;4857001;29;20038;-79
2021/01/24 07:41:00;;;;;;;14.02;10.02;;;205.70;1868.80;;;;;;4826431;29;20029;-78
2021/01/24 07:43:29;;;;;;;15.55;9.23;;;230.40;1868.80;;;;;;4844426;29;20038;-78
2021/01/24 07:45:55;;;;;;;16.58;11.73;;;230.40;1843.20;;;;;;4827297;29;20121;-77
2021/01/24 07:48:21;;;;;;;19.98;12.07;;;230.40;1843.20;;;;;;4827384;29;20030;-78
2021/01/24 07:50:47;;;;;;;16.85;11.73;;;230.50;1843.20;;;;;;4827370;29;20482;-78
2021/01/24 07:53:13;;;;;;;18.50;11.10;;;230.70;1817.60;;;;;;4827827;29;20033;-78
2021/01/24 07:55:40;;;;;;;14.93;10.68;;;230.80;1792.00;;;;;;4827451;29;20026;-78
2021/01/24 07:58:07;;;;;;;17.77;9.25;;;230.90;1792.00;;;;;;4827487;29;20074;-79
2021/01/24 08:00:34;;;;;;;10.18;6.95;;;230.90;1766.40;;;;;;4828696;29;20154;-78
2021/01/24 08:03:01;;;;;;;10.52;6.95;;;231.00;1766.40;;;;;;4827521;29;20428;-78
2021/01/24 08:05:33;;;;;;;12.30;7.38;;;231.00;1792.00;;;;;;4845952;29;20474;-78
2021/01/24 08:08:00;;;;;;;10.73;6.63;;;231.10;1766.40;;;;;;4862166;29;20037;-78
2021/01/24 08:10:30;;;;;;;10.73;6.82;;;231.10;1766.40;;;;;;4846080;29;20033;-78
2021/01/24 08:12:57;;;;;;;8.73;5.85;;;231.30;1766.40;;;;;;4845766;29;20028;-78
2021/01/24 08:15:23;;;;;;;9.82;6.18;;;231.30;1740.80;;;;;;4845721;29;20387;-79
2021/01/24 08:17:50;;;;;;;9.57;5.75;;;256.00;1740.80;;;;;;4845827;29;20062;-79
2021/01/24 08:20:17;;;;;;;8.38;5.50;;;256.10;1740.80;;;;;;4862437;29;20029;-79
2021/01/24 08:22:44;;;;;;;8.40;5.32;;;256.20;1740.80;;;;;;4845635;29;20439;-78
2021/01/24 08:25:11;;;;;;;7.20;5.88;;;256.30;1715.20;;;;;;4846151;29;20029;-79
2021/01/24 08:27:38;;;;;;;12.02;6.82;;;256.40;1715.20;;;;;;4862952;29;20118;-79
2021/01/24 08:30:04;;;;;;;10.90;6.15;;;256.40;1715.20;;;;;;4862314;29;20026;-79
2021/01/24 08:32:31;;;;;;;8.07;5.72;;;256.60;1689.60;;;;;;4846167;29;20029;-78
2021/01/24 08:34:57;;;;;;;8.10;6.13;;;256.80;1689.60;;;;;;4845733;29;20493;-79
2021/01/24 08:37:25;;;;;;;12.52;7.70;;;256.80;1689.60;;;;;;4875442;29;20045;-78
2021/01/24 08:39:51;;;;;;;9.52;5.80;;;256.80;1689.60;;;;;;4864351;29;20037;-78
2021/01/24 08:42:17;;;;;;;12.43;5.78;;;281.60;1689.60;;;;;;4881383;29;20789;-78
2021/01/24 08:45:05;;;;;;;9.13;5.68;;;281.70;1689.60;;;;;;4882084;29;20033;-78
2021/01/24 08:47:31;;;;;;;10.57;6.68;;;281.80;1689.60;;;;;;4851166;29;20033;-77
2021/01/24 08:50:09;;;;;;;10.50;7.45;;;281.90;1664.00;;;;;;4881212;29;20033;-78
2021/01/24 08:52:35;;;;;;;10.48;6.78;;;282.00;1664.00;;;;;;4866181;29;20612;-78
2021/01/24 08:55:03;;;;;;;11.85;6.88;;;282.20;1638.40;;;;;;4874023;29;20045;-77
2021/01/24 08:57:35;;;;;;;11.57;8.40;;;282.30;1638.40;;;;;;4880420;29;20033;-78
2021/01/24 09:00:05;;;;;;;12.10;7.90;;;282.50;1612.80;;;;;;4846663;29;20097;-78
2021/01/24 09:02:38;;;;;;;11.35;7.85;;;307.40;1612.80;;;;;;4863770;29;20113;-78
2021/01/24 09:05:05;;;;;;;18.30;10.63;;;307.70;1587.20;;;;;;4863651;29;20058;-79
2021/01/24 09:07:38;;;;;;;18.65;11.77;;;308.00;1561.60;;;;;;4846978;29;20033;-78
2021/01/24 09:10:33;;;;;;;15.52;10.68;;;332.90;1536.00;;;;;;4846714;29;20037;-78
2021/01/24 09:13:04;;;;;;;20.65;13.80;;;333.40;1510.40;;;;;;4791228;29;20122;-79
2021/01/24 09:15:33;;;;;;;11.75;7.95;;;333.70;1484.80;;;;;;4803858;29;20094;-79
2021/01/24 09:18:00;;;;;;;20.17;8.52;;;358.40;1459.20;;;;;;4808794;29;20035;-78
2021/01/24 09:20:29;;;;;;;12.55;7.93;;;358.60;1459.20;;;;;;4808262;29;20030;-79
2021/01/24 09:22:54;;;;;;;9.55;7.70;;;358.70;1433.60;;;;;;4808247;29;20514;-79
2021/01/24 09:25:21;;;;;;;12.00;8.00;;;358.60;1433.60;;;;;;4821135;29;20479;-80
2021/01/24 09:27:47;;;;;;;14.15;9.32;;;358.40;1484.80;;;;;;4809364;29;20078;-78
2021/01/24 09:30:15;;;;;;;16.20;11.73;;;358.40;1459.20;;;;;;4823149;29;20050;-79
2021/01/24 09:32:41;;;;;;;18.95;11.07;;;333.70;1510.40;;;;;;4803508;29;20072;-79
2021/01/24 09:35:07;;;;;;;11.60;8.50;;;333.50;1510.40;;;;;;4798561;29;20099;-79
2021/01/24 09:37:34;;;;;;;11.07;7.47;;;333.40;1510.40;;;;;;4802766;29;20050;-78
2021/01/24 09:39:59;;;;;;;10.68;7.32;;;333.30;1484.80;;;;;;4803931;29;20034;-78
2021/01/24 09:42:25;;;;;;;9.88;7.13;;;333.20;1484.80;;;;;;4804149;29;20043;-78
2021/01/24 09:44:51;;;;;;;11.45;8.18;;;333.20;1510.40;;;;;;4804164;29;20125;-79
2021/01/24 09:47:17;;;;;;;12.40;8.63;;;333.30;1510.40;;;;;;4803307;29;20042;-78
2021/01/24 09:49:43;;;;;;;11.27;8.20;;;358.50;1459.20;;;;;;4840269;29;20582;-78
2021/01/24 09:57:20;;;;;;;16.23;10.30;;;384.10;1356.80;;;;;;5755438;24;20009;-88
2021/01/24 09:59:45;;;;;;;16.30;10.95;;;384.10;1331.20;;;;;;4858486;29;20437;-88
2021/01/24 10:02:11;;;;;;;13.85;8.23;;;384.30;1331.20;;;;;;4858897;29;20064;-86
2021/01/24 10:04:36;;;;;;;12.35;7.40;;;384.20;1331.20;;;;;;4844080;29;20064;-90
2021/01/24 10:07:02;;;;;;;11.48;8.15;;;384.20;1356.80;;;;;;4843912;29;20037;-86
2021/01/24 10:09:29;;;;;;;14.07;9.73;;;384.60;1331.20;;;;;;4844169;29;20061;-88
2021/01/24 10:11:55;;;;;;;11.38;7.93;;;384.70;1305.60;;;;;;4858065;29;20072;-88
2021/01/24 10:14:20;;;;;;;15.32;10.05;;;384.50;1305.60;;;;;;4839543;29;20072;-88
2021/01/24 10:16:46;;;;;;;13.82;10.23;;;409.60;1305.60;;;;;;4844430;29;20050;-91
2021/01/24 10:19:12;;;;;;;10.70;6.95;;;409.60;1280.00;;;;;;4854518;29;20025;-88
2021/01/24 10:21:37;;;;;;;11.95;8.85;;;384.40;1305.60;;;;;;4862632;29;20364;-88
2021/01/24 10:24:04;;;;;;;14.85;8.02;;;384.40;1305.60;;;;;;4862653;29;20040;-89
2021/01/24 10:26:29;;;;;;;11.85;6.97;;;384.50;1305.60;;;;;;4863710;29;20044;-88
2021/01/24 10:28:55;;;;;;;8.43;5.65;;;384.60;1280.00;;;;;;4863168;29;20038;-87
2021/01/24 10:31:20;;;;;;;10.90;6.95;;;384.60;1305.60;;;;;;4851892;29;20489;-89
2021/01/24 10:33:46;;;;;;;13.00;7.57;;;384.90;1280.00;;;;;;4857224;29;20480;-90
2021/01/24 10:36:12;;;;;;;14.40;8.35;;;409.70;1305.60;;;;;;4865663;29;20069;-89
2021/01/24 10:38:39;;;;;;;11.60;7.85;;;409.90;1305.60;;;;;;4865847;29;20408;-90
2021/01/24 10:41:05;;;;;;;14.15;8.00;;;409.90;1305.60;;;;;;4849513;29;20093;-91
2021/01/24 10:43:31;;;;;;;16.48;11.05;;;409.80;1305.60;;;;;;4861640;29;20140;-90
2021/01/24 10:45:56;;;;;;;19.05;11.07;;;410.20;1305.60;;;;;;4855315;29;20037;-90
2021/01/24 10:48:22;;;;;;;12.45;8.23;;;435.50;1228.80;;;;;;4865479;29;20059;-90
2021/01/24 10:50:47;;;;;;;19.00;10.90;;;435.90;1177.60;;;;;;4877124;29;20149;-88
2021/01/24 10:53:13;;;;;;;14.38;8.10;;;460.90;1228.80;;;;;;4865331;29;20093;-89
2021/01/24 10:55:39;;;;;;;17.42;10.43;;;461.60;1152.00;;;;;;4865915;29;20029;-92
2021/01/24 10:58:05;;;;;;;20.27;13.70;;;461.40;1152.00;;;;;;4861476;29;20057;-89
2021/01/24 11:00:31;;;;;;;16.10;11.00;;;486.90;1100.80;;;;;;4853354;29;20108;-88
2021/01/24 11:02:57;;;;;;;23.92;12.20;;;487.10;1075.20;;;;;;4858886;29;20033;-88
2021/01/24 11:05:23;;;;;;;14.65;9.85;;;487.20;1075.20;;;;;;4882349;29;20037;-87
2021/01/24 11:07:48;;;;;;;16.70;8.57;;;512.30;1024.00;;;;;;4865058;29;20149;-84
2021/01/24 11:10:14;;;;;;;11.35;8.55;;;512.50;1024.00;;;;;;4864232;29;20041;-84
2021/01/24 11:12:40;;;;;;;16.67;10.57;;;512.50;1024.00;;;;;;4881241;29;20433;-82
2021/01/24 11:15:07;;;;;;;24.55;16.55;;;512.70;1024.00;;;;;;4868981;29;20548;-82
2021/01/24 11:17:33;;;;;;;17.30;9.95;;;537.60;1024.00;;;;;;4880793;29;20157;-82
2021/01/24 11:19:59;;;;;;;15.35;12.05;;;537.90;998.40;;;;;;4874885;29;20024;-80
2021/01/24 11:22:24;;;;;;;31.52;19.75;;;538.00;998.40;;;;;;4862081;29;20112;-85
2021/01/24 11:24:50;;;;;;;44.10;28.45;;;512.30;1024.00;;;;;;4844910;29;20033;-85
2021/01/24 11:27:16;;;;;;;30.73;21.05;;;512.10;1049.60;;;;;;4852474;29;20045;-86
2021/01/24 11:29:43;;;;;;;19.40;12.73;;;512.30;1024.00;;;;;;4851382;29;20089;-82
2021/01/24 11:32:09;;;;;;;26.95;17.42;;;487.20;1049.60;;;;;;4853053;29;20089;-81
2021/01/24 11:34:36;;;;;;;21.77;14.52;;;487.30;1075.20;;;;;;4854314;29;20037;-81
2021/01/24 11:37:03;;;;;;;14.23;11.65;;;512.10;1049.60;;;;;;4859871;29;20049;-86
2021/01/24 11:39:29;;;;;;;24.77;15.57;;;512.40;1024.00;;;;;;4870742;29;20025;-82
2021/01/24 11:41:54;;;;;;;20.05;14.02;;;512.10;1049.60;;;;;;4863885;29;20033;-87
2021/01/24 11:44:20;;;;;;;29.90;17.45;;;487.10;1075.20;;;;;;4844939;29;20426;-82
2021/01/24 11:46:46;;;;;;;20.20;13.95;;;486.80;1126.40;;;;;;4860312;29;20051;-84
2021/01/24 11:49:11;;;;;;;24.30;17.08;;;486.40;1152.00;;;;;;4854616;29;20059;-85
2021/01/24 11:51:37;;;;;;;20.98;13.52;;;461.50;1177.60;;;;;;4852532;29;20040;-83
2021/01/24 11:54:03;;;;;;;21.52;14.65;;;461.10;1203.20;;;;;;4863794;29;20068;-83
2021/01/24 11:56:29;;;;;;;20.98;14.63;;;460.80;1228.80;;;;;;4874853;29;20035;-83
2021/01/24 11:58:55;;;;;;;28.42;15.98;;;435.60;1228.80;;;;;;4880167;29;20057;-84
2021/01/24 12:01:20;;;;;;;33.88;19.48;;;435.30;1254.40;;;;;;4880204;29;20036;-88
2021/01/24 12:03:46;;;;;;;34.25;19.83;;;435.20;1254.40;;;;;;4854086;29;20111;-80
2021/01/24 12:06:12;;;;;;;31.38;17.13;;;410.30;1280.00;;;;;;4864196;29;20033;-88
2021/01/24 12:08:38;;;;;;;44.42;24.75;;;410.10;1305.60;;;;;;4863818;29;20051;-88
2021/01/24 12:11:03;;;;;;;26.50;15.30;;;410.00;1331.20;;;;;;4850685;29;20096;-89
2021/01/24 12:13:29;;;;;;;21.58;13.30;;;409.80;1382.40;;;;;;4845918;29;20472;-89
2021/01/24 12:15:55;;;;;;;21.38;13.25;;;409.70;1408.00;;;;;;4846123;29;20045;-89
2021/01/24 12:18:22;;;;;;;34.75;19.38;;;384.80;1331.20;;;;;;4866669;29;20025;-88
2021/01/24 12:20:48;;;;;;;25.67;17.35;;;384.90;1382.40;;;;;;4858278;29;20073;-92
2021/01/24 12:23:14;;;;;;;26.83;16.38;;;384.90;1382.40;;;;;;4851469;29;20037;-89
2021/01/24 12:25:39;;;;;;;41.45;22.90;;;384.90;1408.00;;;;;;4878235;29;20032;-85
2021/01/24 12:28:05;;;;;;;22.10;14.18;;;384.70;1408.00;;;;;;4847936;29;20132;-89
2021/01/24 12:30:31;;;;;;;46.65;26.83;;;384.70;1382.40;;;;;;4858854;29;20041;-91
2021/01/24 12:32:57;;;;;;;40.35;27.70;;;384.60;1408.00;;;;;;4858580;29;20025;-92
2021/01/24 12:35:25;;;;;;;36.20;20.92;;;384.70;1408.00;;;;;;4848156;29;20497;-90
2021/01/24 12:37:53;;;;;;;23.23;14.57;;;384.60;1433.60;;;;;;4852019;29;20081;-90
2021/01/24 12:40:20;;;;;;;24.55;15.18;;;384.70;1433.60;;;;;;4853127;29;20465;-90
2021/01/24 12:42:45;;;;;;;15.77;10.43;;;384.60;1433.60;;;;;;4846725;29;20120;-86
2021/01/24 12:45:12;;;;;;;15.13;7.75;;;384.50;1408.00;;;;;;4849201;29;20548;-91